createdAt,value
2023-02-01T04:47:52.214Z,582.00
2023-02-01T04:50:18.859Z,583.30
2023-02-01T04:52:46.344Z,592.03
2023-02-01T04:55:14.493Z,608.73
2023-02-01T04:57:41.434Z,598.20
2023-02-01T05:00:09.715Z,595.65
2023-02-01T05:02:36.375Z,591.45
2023-02-01T05:05:03.394Z,577.03
2023-02-01T05:07:30.055Z,587.47
2023-02-01T05:09:56.644Z,574.13
2023-02-01T05:12:41.836Z,571.25
2023-02-01T05:15:08.860Z,552.75
2023-02-01T05:17:35.456Z,554.60
2023-02-01T05:20:02.089Z,575.67
2023-02-01T05:22:28.659Z,572.42
2023-02-01T05:24:55.303Z,584.42
2023-02-01T05:27:21.950Z,584.53
2023-02-01T05:29:48.585Z,584.22
2023-02-01T05:32:22.227Z,558.65
2023-02-01T05:34:49.791Z,562.85
2023-02-01T05:37:16.398Z,555.92
2023-02-01T05:39:43.143Z,553.50
2023-02-01T05:42:09.787Z,561.45
2023-02-01T05:44:36.452Z,553.33
2023-02-01T05:47:03.076Z,543.13
2023-02-01T05:49:29.769Z,557.60
2023-02-01T05:51:58.029Z,543.42
2023-02-01T05:54:26.136Z,549.58
2023-02-01T05:56:52.886Z,540.85
2023-02-01T05:59:19.701Z,548.15
2023-02-01T06:01:46.438Z,545.83
2023-02-01T06:04:13.133Z,540.60
2023-02-01T06:06:39.802Z,552.08
2023-02-01T06:09:06.501Z,544.47
2023-02-01T06:11:33.486Z,551.75
2023-02-01T06:14:00.704Z,548.83
2023-02-01T06:16:28.845Z,552.38
2023-02-01T06:18:55.535Z,555.13
2023-02-01T06:21:25.234Z,555.60
2023-02-01T06:23:53.585Z,548.13
2023-02-01T06:26:20.337Z,556.60
2023-02-01T06:28:47.101Z,550.17
2023-02-01T06:31:13.916Z,549.35
2023-02-01T06:33:41.405Z,553.55
2023-02-01T06:36:10.547Z,547.58
2023-02-01T06:38:37.203Z,545.22
2023-02-01T06:41:04.824Z,551.10
2023-02-01T06:43:33.572Z,541.58
2023-02-01T06:46:02.235Z,546.78
2023-02-01T06:48:28.972Z,544.85
2023-02-01T06:50:55.884Z,551.47
2023-02-01T06:53:22.692Z,560.20
2023-02-01T06:56:01.027Z,567.17
2023-02-01T06:58:32.413Z,589.05
2023-02-01T07:01:04.837Z,586.25
2023-02-01T07:03:31.493Z,605.00
2023-02-01T07:06:01.684Z,604.03
2023-02-01T07:08:29.958Z,578.20
2023-02-01T07:10:56.654Z,566.03
2023-02-01T07:13:23.351Z,575.85
2023-02-01T07:15:50.062Z,566.22
2023-02-01T07:18:16.929Z,563.47
2023-02-01T07:20:43.665Z,560.65
2023-02-01T07:23:11.326Z,562.00
2023-02-01T07:25:37.985Z,556.73
2023-02-01T07:28:04.616Z,559.60
2023-02-01T07:30:31.253Z,558.03
2023-02-01T07:33:01.882Z,555.03
2023-02-01T07:35:30.121Z,554.73
2023-02-01T07:37:58.987Z,546.35
2023-02-01T07:40:29.575Z,543.55
2023-02-01T07:42:56.868Z,550.38
2023-02-01T07:45:24.250Z,548.42
2023-02-01T07:47:53.482Z,549.15
2023-02-01T07:50:20.296Z,544.22
2023-02-01T07:52:46.959Z,539.27
2023-02-01T07:55:13.588Z,542.75
2023-02-01T07:57:40.222Z,539.38
2023-02-01T08:00:25.978Z,547.70
2023-02-01T08:02:52.642Z,547.95
2023-02-01T08:05:19.255Z,539.47
2023-02-01T08:07:51.094Z,534.65
2023-02-01T08:10:19.489Z,533.90
2023-02-01T08:12:48.818Z,523.85
2023-02-01T08:15:19.322Z,523.40
2023-02-01T08:17:52.647Z,517.22
2023-02-01T08:20:19.987Z,505.55
2023-02-01T08:22:46.781Z,507.83
2023-02-01T08:25:13.559Z,512.40
2023-02-01T08:27:40.267Z,508.98
2023-02-01T08:30:10.431Z,525.63
2023-02-01T08:32:37.434Z,529.05
2023-02-01T08:35:05.532Z,527.33
2023-02-01T08:37:32.186Z,520.42
2023-02-01T08:39:58.782Z,529.60
2023-02-01T08:42:43.923Z,530.63
2023-02-01T08:45:10.933Z,542.42
2023-02-01T08:47:37.706Z,538.45
2023-02-01T08:50:04.598Z,542.75
2023-02-01T08:52:31.260Z,541.53
2023-02-01T08:54:57.978Z,536.50
2023-02-01T08:57:24.634Z,541.53
2023-02-01T08:59:51.293Z,535.15
2023-02-01T09:02:18.582Z,537.47
2023-02-01T09:04:45.213Z,550.83
2023-02-01T09:07:12.262Z,548.93
2023-02-01T09:09:39.454Z,551.42
2023-02-01T09:12:06.397Z,553.22
2023-02-01T09:14:33.112Z,553.05
2023-02-01T09:16:59.705Z,552.15
2023-02-01T09:19:27.333Z,553.13
2023-02-01T09:21:54.426Z,550.03
2023-02-01T09:24:21.097Z,551.85
2023-02-01T09:26:47.894Z,567.50
2023-02-01T09:29:14.631Z,572.17
2023-02-01T09:31:44.190Z,561.50
2023-02-01T09:34:13.601Z,575.45
2023-02-01T09:36:40.252Z,585.05
2023-02-01T09:39:06.883Z,590.25
2023-02-01T09:41:38.933Z,584.72
2023-02-01T09:44:42.428Z,579.53
2023-02-01T09:47:19.787Z,565.78
2023-02-01T09:50:01.728Z,575.93
2023-02-01T09:52:41.588Z,588.40
2023-02-01T09:55:20.482Z,586.28
2023-02-01T09:57:57.384Z,583.33
2023-02-01T10:00:28.001Z,595.08
2023-02-01T10:02:56.765Z,611.40
2023-02-01T10:05:43.670Z,617.28
2023-02-01T10:08:27.251Z,627.35
2023-02-01T10:11:01.658Z,627.72
2023-02-01T10:13:55.814Z,626.42
2023-02-01T10:16:46.237Z,628.10
2023-02-01T10:19:27.773Z,620.55
2023-02-01T10:22:00.113Z,606.28
2023-02-01T10:24:38.718Z,596.05
2023-02-01T10:27:20.256Z,591.97
2023-02-01T10:29:54.932Z,592.40
2023-02-01T10:32:25.596Z,596.07
2023-02-01T10:35:09.748Z,598.00
2023-02-01T10:37:36.473Z,594.30
2023-02-01T10:40:27.277Z,571.83
2023-02-01T10:42:58.470Z,586.47
2023-02-01T10:45:29.094Z,586.78
2023-02-01T10:47:59.085Z,566.75
2023-02-01T10:50:54.546Z,596.53
2023-02-01T10:53:37.498Z,590.80
2023-02-01T10:56:09.496Z,593.75
2023-02-01T10:58:43.603Z,594.72
2023-02-01T11:01:20.200Z,593.83
2023-02-01T11:03:59.770Z,591.88
2023-02-01T11:06:37.251Z,590.50
2023-02-01T11:09:09.651Z,608.97
2023-02-01T11:11:48.304Z,612.23
2023-02-01T11:14:18.190Z,624.17
2023-02-01T11:16:50.342Z,658.50
2023-02-01T11:19:18.252Z,718.08
2023-02-01T11:21:46.127Z,740.13
2023-02-01T11:24:24.594Z,742.23
2023-02-01T11:26:51.859Z,749.13
2023-02-01T11:29:23.054Z,731.97
2023-02-01T11:31:51.420Z,715.35
2023-02-01T11:34:46.625Z,701.05
2023-02-01T11:37:38.142Z,692.17
2023-02-01T11:40:26.378Z,673.20
2023-02-01T11:43:20.843Z,652.05
2023-02-01T11:45:59.458Z,652.35
2023-02-01T11:48:28.467Z,636.85
2023-02-01T11:51:16.487Z,638.87
2023-02-01T11:54:03.333Z,631.90
2023-02-01T11:56:29.950Z,632.50
2023-02-01T11:59:09.183Z,632.08
2023-02-01T12:01:44.067Z,635.45
2023-02-01T12:04:34.814Z,628.58
2023-02-01T12:07:04.272Z,642.05
2023-02-01T12:09:34.908Z,640.22
2023-02-01T12:12:09.166Z,641.22
2023-02-01T12:15:02.319Z,644.83
2023-02-01T12:17:57.034Z,640.92
2023-02-01T12:20:24.576Z,639.90
2023-02-01T12:23:06.553Z,642.00
2023-02-01T12:25:55.112Z,643.88
2023-02-01T12:28:28.162Z,651.50
2023-02-01T12:31:00.617Z,644.58
2023-02-01T12:33:51.732Z,649.70
2023-02-01T12:36:32.088Z,645.88
2023-02-01T12:39:25.983Z,651.85
2023-02-01T12:42:23.057Z,654.35
2023-02-01T12:45:27.429Z,659.50
2023-02-01T12:48:00.751Z,655.33
2023-02-01T12:50:54.049Z,665.28
2023-02-01T12:53:31.505Z,666.20
2023-02-01T12:56:02.146Z,663.45
2023-02-01T12:58:55.620Z,664.28
2023-02-01T13:01:36.595Z,660.05
2023-02-01T13:04:15.675Z,659.08
2023-02-01T13:06:55.905Z,652.08
2023-02-01T13:09:54.601Z,652.28
2023-02-01T13:12:28.855Z,653.70
2023-02-01T13:15:00.438Z,643.88
2023-02-01T13:17:32.711Z,644.83
2023-02-01T13:20:26.836Z,640.25
2023-02-01T13:23:25.945Z,629.30
2023-02-01T13:25:54.074Z,642.03
2023-02-01T13:28:24.955Z,636.47
2023-02-01T13:31:17.914Z,633.80
2023-02-01T13:34:04.883Z,633.55
2023-02-01T13:37:00.474Z,630.15
2023-02-01T13:39:58.231Z,633.30
2023-02-01T13:42:36.399Z,628.30
2023-02-01T13:45:13.771Z,632.75
2023-02-01T13:47:43.480Z,638.60
2023-02-01T13:50:32.467Z,643.88
2023-02-01T13:53:16.737Z,637.47
2023-02-01T13:55:55.567Z,632.30
2023-02-01T13:58:30.652Z,641.20
2023-02-01T14:01:22.327Z,626.00
2023-02-01T14:03:55.975Z,637.20
2023-02-01T14:06:28.732Z,641.25
2023-02-01T14:09:13.221Z,634.85
2023-02-01T14:11:46.991Z,633.55
2023-02-01T14:14:16.659Z,637.00
2023-02-01T14:16:46.364Z,634.40
2023-02-01T14:19:26.766Z,641.43
2023-02-01T14:21:59.632Z,637.87
2023-02-01T14:24:34.917Z,643.65
2023-02-01T14:27:20.808Z,646.17
2023-02-01T14:30:02.457Z,649.55
2023-02-01T14:32:35.705Z,655.27
2023-02-01T14:35:07.428Z,645.65
2023-02-01T14:37:37.135Z,642.87
2023-02-01T14:40:27.100Z,638.05
2023-02-01T14:42:55.030Z,640.28
2023-02-01T14:45:23.173Z,631.72
2023-02-01T14:47:55.386Z,628.13
2023-02-01T14:50:40.956Z,626.03
2023-02-01T14:53:13.731Z,631.60
2023-02-01T14:56:04.835Z,626.90
2023-02-01T14:59:13.863Z,626.28
2023-02-01T15:01:51.358Z,619.45
2023-02-01T15:04:19.805Z,616.65
2023-02-01T15:06:59.723Z,625.08
2023-02-01T15:09:27.922Z,622.33
2023-02-01T15:12:12.673Z,619.53
2023-02-01T15:15:05.160Z,619.75
2023-02-01T15:17:35.329Z,615.63
2023-02-01T15:20:12.424Z,615.80
2023-02-01T15:22:40.071Z,609.40
2023-02-01T15:25:07.301Z,611.38
2023-02-01T15:27:34.561Z,617.20
2023-02-01T15:30:10.018Z,613.75
2023-02-01T15:32:39.693Z,617.80
2023-02-01T15:35:27.443Z,615.55
2023-02-01T15:37:54.111Z,612.75
2023-02-01T15:40:25.277Z,619.33
2023-02-01T15:42:55.781Z,614.03
2023-02-01T15:45:27.813Z,608.55
2023-02-01T15:47:56.603Z,611.53
2023-02-01T15:50:26.111Z,603.00
2023-02-01T15:52:56.411Z,605.83
2023-02-01T15:55:34.533Z,600.42
2023-02-01T15:58:01.635Z,603.40
2023-02-01T16:00:34.804Z,591.13
2023-02-01T16:03:25.866Z,597.77
2023-02-01T16:06:01.109Z,606.42
2023-02-01T16:08:33.099Z,591.10
2023-02-01T16:11:22.791Z,599.03
2023-02-01T16:13:49.725Z,594.97
2023-02-01T16:16:16.537Z,608.45
2023-02-01T16:18:43.726Z,612.30
2023-02-01T16:21:10.487Z,603.57
2023-02-01T16:23:37.879Z,599.22
2023-02-01T16:26:05.332Z,602.45
2023-02-01T16:28:31.985Z,602.03
2023-02-01T16:30:59.100Z,610.10
2023-02-01T16:33:27.229Z,611.67
2023-02-01T16:35:58.234Z,607.85
2023-02-01T16:38:25.098Z,611.05
2023-02-01T16:40:51.745Z,606.97
2023-02-01T16:43:23.831Z,599.17
2023-02-01T16:45:53.076Z,606.55
2023-02-01T16:48:31.728Z,609.17
2023-02-01T16:51:01.373Z,610.72
2023-02-01T16:53:30.985Z,605.13
2023-02-01T16:55:58.483Z,603.75
2023-02-01T16:58:26.776Z,612.42
2023-02-01T17:00:54.464Z,607.13
2023-02-01T17:03:22.657Z,601.13
2023-02-01T17:05:53.855Z,598.42
2023-02-01T17:08:35.264Z,594.55
2023-02-01T17:11:03.902Z,609.67
2023-02-01T17:13:30.858Z,602.95
2023-02-01T17:15:59.605Z,592.13
2023-02-01T17:18:31.580Z,587.53
2023-02-01T17:20:59.462Z,600.58
2023-02-01T17:23:27.906Z,592.85
2023-02-01T17:25:55.417Z,596.53
2023-02-01T17:28:22.115Z,595.13
2023-02-01T17:30:49.210Z,597.20
2023-02-01T17:33:28.386Z,592.25
2023-02-01T17:36:05.927Z,598.93
2023-02-01T17:38:34.682Z,586.35
2023-02-01T17:41:01.390Z,583.92
2023-02-01T17:43:28.203Z,592.47
2023-02-01T17:46:27.214Z,592.30
2023-02-01T17:48:55.225Z,597.75
2023-02-01T17:51:24.895Z,591.83
2023-02-01T17:53:51.637Z,588.47
2023-02-01T17:56:20.942Z,593.50
2023-02-01T17:58:48.504Z,592.42
2023-02-01T18:01:21.180Z,585.03
2023-02-01T18:03:48.161Z,587.80
2023-02-01T18:06:20.005Z,596.63
2023-02-01T18:08:47.098Z,586.13
2023-02-01T18:11:22.320Z,587.15
2023-02-01T18:13:51.170Z,592.00
2023-02-01T18:16:19.947Z,595.15
2023-02-01T18:18:47.548Z,582.85
2023-02-01T18:21:17.412Z,589.90
2023-02-01T18:23:44.881Z,592.45
2023-02-01T18:26:13.710Z,581.42
2023-02-01T18:28:42.412Z,585.65
2023-02-01T18:31:30.933Z,582.42
2023-02-01T18:33:59.088Z,580.35
2023-02-01T18:36:26.942Z,585.03
2023-02-01T18:38:56.332Z,590.33
2023-02-01T18:41:23.826Z,572.17
2023-02-01T18:43:51.775Z,576.03
2023-02-01T18:46:19.264Z,583.13
2023-02-01T18:48:45.947Z,581.00
2023-02-01T18:51:20.262Z,577.42
2023-02-01T18:53:48.654Z,583.92
2023-02-01T18:56:18.057Z,571.70
2023-02-01T18:58:45.099Z,580.03
2023-02-01T19:01:17.237Z,579.05
2023-02-01T19:03:47.434Z,588.53
2023-02-01T19:06:20.931Z,582.33
2023-02-01T19:08:48.055Z,575.50
2023-02-01T19:11:14.878Z,586.97
2023-02-01T19:13:41.764Z,587.75
2023-02-01T19:16:13.293Z,593.00
2023-02-01T19:18:40.201Z,586.05
2023-02-01T19:21:11.089Z,587.90
2023-02-01T19:23:41.964Z,578.63
2023-02-01T19:26:13.026Z,572.03
2023-02-01T19:28:39.837Z,575.00
2023-02-01T19:31:08.621Z,579.85
2023-02-01T19:33:35.823Z,588.15
2023-02-01T19:36:05.756Z,577.72
2023-02-01T19:38:33.686Z,577.90
2023-02-01T19:41:00.411Z,574.70
2023-02-01T19:43:27.067Z,589.25
2023-02-01T19:45:54.661Z,578.05
2023-02-01T19:48:21.422Z,573.53
2023-02-01T19:50:48.145Z,578.23
2023-02-01T19:53:14.764Z,575.75
2023-02-01T19:55:45.630Z,580.85
2023-02-01T19:58:12.645Z,587.33
2023-02-01T20:00:38.440Z,572.38
2023-02-01T20:03:05.170Z,572.22
2023-02-01T20:05:32.083Z,581.70
2023-02-01T20:07:58.714Z,591.20
2023-02-01T20:10:25.381Z,580.63
2023-02-01T20:12:52.064Z,583.70
2023-02-01T20:15:18.781Z,590.28
2023-02-01T20:17:45.498Z,595.20
2023-02-01T20:20:12.459Z,585.53
2023-02-01T20:22:39.084Z,583.58
2023-02-01T20:25:06.268Z,583.35
2023-02-01T20:27:33.778Z,584.78
2023-02-01T20:30:00.504Z,581.45
2023-02-01T20:32:27.204Z,579.67
2023-02-01T20:34:54.393Z,577.58
2023-02-01T20:37:21.625Z,576.38
2023-02-01T20:39:48.374Z,582.50
2023-02-01T20:42:15.076Z,592.03
2023-02-01T20:44:41.718Z,584.92
2023-02-01T20:47:08.330Z,588.65
2023-02-01T20:49:35.272Z,589.27
2023-02-01T20:52:01.954Z,575.33
2023-02-01T20:54:28.565Z,581.88
2023-02-01T20:56:55.237Z,583.23
2023-02-01T20:59:21.880Z,571.70
2023-02-01T21:01:54.530Z,580.75
2023-02-01T21:04:27.231Z,575.88
2023-02-01T21:06:58.738Z,576.72
2023-02-01T21:09:26.386Z,586.05
2023-02-01T21:11:53.660Z,579.17
2023-02-01T21:14:20.513Z,577.42
2023-02-01T21:16:48.387Z,580.80
2023-02-01T21:19:16.771Z,583.05
2023-02-01T21:21:44.132Z,579.67
2023-02-01T21:24:10.816Z,580.75
2023-02-01T21:26:43.347Z,585.53
2023-02-01T21:29:12.604Z,587.78
2023-02-01T21:31:40.250Z,586.88
2023-02-01T21:34:07.678Z,585.28
2023-02-01T21:36:35.373Z,586.55
2023-02-01T21:39:04.560Z,591.65
2023-02-01T21:41:52.418Z,591.20
2023-02-01T21:44:19.704Z,582.83
2023-02-01T21:46:46.820Z,584.80
2023-02-01T21:49:13.587Z,584.35
2023-02-01T21:51:41.022Z,592.90
2023-02-01T21:54:09.158Z,596.53
2023-02-01T21:56:37.006Z,597.97
2023-02-01T21:59:04.173Z,596.88
2023-02-01T22:01:30.897Z,598.00
2023-02-01T22:03:57.524Z,591.50
2023-02-01T22:06:29.417Z,590.08
2023-02-01T22:08:56.429Z,582.87
2023-02-01T22:11:23.923Z,580.28
2023-02-01T22:13:50.759Z,576.63
2023-02-01T22:16:18.298Z,587.88
2023-02-01T22:18:47.038Z,582.55
2023-02-01T22:21:14.129Z,574.42
2023-02-01T22:23:41.039Z,572.72
2023-02-01T22:26:09.576Z,574.60
2023-02-01T22:28:37.313Z,579.63
2023-02-01T22:31:05.677Z,585.10
2023-02-01T22:33:35.725Z,581.33
2023-02-01T22:36:03.133Z,574.80
2023-02-01T22:38:34.404Z,584.17
2023-02-01T22:41:04.098Z,584.42
2023-02-01T22:43:31.266Z,571.72
2023-02-01T22:46:06.662Z,578.08
2023-02-01T22:48:38.284Z,571.28
2023-02-01T22:51:06.530Z,578.53
2023-02-01T22:53:33.824Z,584.33
2023-02-01T22:56:01.591Z,579.30
2023-02-01T22:58:28.342Z,577.03
2023-02-01T23:00:54.999Z,594.80
2023-02-01T23:03:22.060Z,581.38
2023-02-01T23:05:48.720Z,595.72
2023-02-01T23:08:15.546Z,597.35
2023-02-01T23:10:42.286Z,585.75
2023-02-01T23:13:09.055Z,585.13
2023-02-01T23:15:38.836Z,568.15
2023-02-01T23:18:05.513Z,574.42
2023-02-01T23:20:32.108Z,578.97
2023-02-01T23:22:58.689Z,578.13
2023-02-01T23:25:26.164Z,583.78
2023-02-01T23:27:52.972Z,572.08
2023-02-01T23:30:19.893Z,570.83
2023-02-01T23:32:46.531Z,586.28
2023-02-01T23:35:13.156Z,583.58
2023-02-01T23:37:40.722Z,575.95
2023-02-01T23:40:08.225Z,567.63
2023-02-01T23:42:35.169Z,573.70
2023-02-01T23:45:02.224Z,587.28
2023-02-01T23:47:28.828Z,579.55
2023-02-01T23:49:55.450Z,585.58
2023-02-01T23:52:22.074Z,581.38
2023-02-01T23:54:48.774Z,585.08
2023-02-01T23:57:15.417Z,583.03
2023-02-01T23:59:42.033Z,581.65
